Time;durP1;ratioP1;P1;durP2;ratioP2;P2;SDS_P1;SDS_P2;PMS_P1;PMS_P2;Temp;Humidity;BMP_temperature;BMP_pressure;BME280_temperature;BME280_humidity;BME280_pressure;Samples;Min_cycle;Max_cycle;Signal;HPM_P1;HPM_P2
2023/06/04 00:00:49;;;;;;;2.30;1.50;;;12.80;68.90;;;;;;4193836;28;20213;-75
2023/06/04 00:02:51;;;;;;;2.73;1.80;;;12.70;67.80;;;;;;4192528;28;20272;-75
2023/06/04 00:04:53;;;;;;;3.57;1.90;;;12.70;67.80;;;;;;4193692;28;20202;-74
2023/06/04 00:06:55;;;;;;;4.47;1.77;;;12.60;68.40;;;;;;4194036;28;20217;-76
2023/06/04 00:08:57;;;;;;;2.50;1.50;;;12.60;69.80;;;;;;4193065;28;20301;-75
2023/06/04 00:10:59;;;;;;;2.97;1.60;;;12.50;69.90;;;;;;4194257;28;20210;-75
2023/06/04 00:13:04;;;;;;;3.53;1.70;;;12.50;70.00;;;;;;4194096;28;20261;-75
2023/06/04 00:15:07;;;;;;;3.67;1.70;;;12.50;70.90;;;;;;4194428;28;20282;-75
2023/06/04 00:17:11;;;;;;;2.83;1.23;;;12.40;72.00;;;;;;4193614;28;20243;-75
2023/06/04 00:19:13;;;;;;;3.23;1.60;;;12.40;72.40;;;;;;4193681;28;20758;-75
2023/06/04 00:21:15;;;;;;;3.47;1.60;;;12.30;73.50;;;;;;4194016;28;21141;-75
2023/06/04 00:23:17;;;;;;;3.83;1.60;;;12.30;76.40;;;;;;4194239;28;20236;-75
2023/06/04 00:25:19;;;;;;;2.27;1.30;;;12.30;78.10;;;;;;4193192;28;20850;-75
2023/06/04 00:27:20;;;;;;;2.67;1.00;;;12.30;79.80;;;;;;4192607;28;20205;-75
2023/06/04 00:29:22;;;;;;;2.10;1.30;;;12.20;79.50;;;;;;4193017;28;20947;-75
2023/06/04 00:31:24;;;;;;;3.20;1.50;;;12.20;79.10;;;;;;4194169;28;20558;-75
2023/06/04 00:33:27;;;;;;;2.53;1.40;;;12.10;79.70;;;;;;4193773;28;20241;-75
2023/06/04 00:35:29;;;;;;;2.57;1.27;;;12.10;80.90;;;;;;4193128;28;20228;-75
2023/06/04 00:37:33;;;;;;;3.17;1.63;;;12.10;84.00;;;;;;4193852;28;20343;-75
2023/06/04 00:39:35;;;;;;;1.90;1.40;;;12.10;85.10;;;;;;4193370;28;20220;-74
2023/06/04 00:41:37;;;;;;;3.37;1.57;;;12.00;88.30;;;;;;4195383;28;20577;-74
2023/06/04 00:43:39;;;;;;;2.73;1.23;;;12.00;88.80;;;;;;4188743;28;20299;-75
2023/06/04 00:45:41;;;;;;;2.37;1.23;;;12.00;90.20;;;;;;4185014;28;20234;-74
2023/06/04 00:47:43;;;;;;;3.53;1.50;;;11.90;90.60;;;;;;4192838;28;20223;-74
2023/06/04 00:49:47;;;;;;;2.60;1.37;;;11.90;91.30;;;;;;4194987;28;20319;-74
2023/06/04 00:51:50;;;;;;;2.77;1.50;;;11.90;91.30;;;;;;4194796;28;20237;-74
2023/06/04 00:53:52;;;;;;;2.30;1.57;;;11.80;92.40;;;;;;4195314;28;20633;-74
2023/06/04 00:55:54;;;;;;;2.90;1.67;;;11.80;93.10;;;;;;4190788;28;20224;-74
2023/06/04 00:57:56;;;;;;;1.93;1.30;;;11.80;93.40;;;;;;4193041;28;20218;-75
2023/06/04 00:59:58;;;;;;;1.93;1.40;;;11.70;93.40;;;;;;4193399;28;20620;-75
2023/06/04 01:02:04;;;;;;;2.40;1.30;;;11.70;93.40;;;;;;4189243;28;20604;-75
2023/06/04 01:04:13;;;;;;;2.53;1.43;;;11.70;94.40;;;;;;4194875;28;20209;-74
2023/06/04 01:06:22;;;;;;;2.67;1.30;;;11.70;95.10;;;;;;4191587;28;20215;-75
2023/06/04 01:08:25;;;;;;;2.53;1.70;;;11.60;95.00;;;;;;4189046;28;20239;-75
2023/06/04 01:10:27;;;;;;;3.40;1.43;;;11.60;96.60;;;;;;4192956;28;20211;-74
2023/06/04 01:12:29;;;;;;;1.93;1.20;;;11.60;96.50;;;;;;4196799;28;20617;-74
2023/06/04 01:14:33;;;;;;;2.27;1.20;;;11.50;97.00;;;;;;4198292;28;20228;-74
2023/06/04 01:16:40;;;;;;;1.80;1.30;;;11.50;97.20;;;;;;4190204;28;20242;-75
2023/06/04 01:18:44;;;;;;;1.97;1.10;;;11.50;98.40;;;;;;4197655;28;20200;-74
2023/06/04 01:20:48;;;;;;;2.20;1.10;;;11.50;98.20;;;;;;4196896;28;20224;-75
2023/06/04 01:23:06;;;;;;;2.00;1.40;;;11.40;98.90;;;;;;4196688;28;20325;-74
2023/06/04 01:25:19;;;;;;;2.83;1.33;;;11.40;99.90;;;;;;4197368;28;20200;-73
2023/06/04 01:27:21;;;;;;;2.17;1.17;;;11.40;99.90;;;;;;4191735;28;20289;-75
2023/06/04 01:29:23;;;;;;;2.33;1.33;;;11.40;99.90;;;;;;4193412;28;20227;-74
2023/06/04 01:31:26;;;;;;;2.03;1.20;;;11.40;99.90;;;;;;4192907;28;21001;-74
2023/06/04 01:33:28;;;;;;;2.63;1.40;;;11.40;99.90;;;;;;4196779;28;20278;-75
2023/06/04 01:35:31;;;;;;;2.40;1.23;;;11.30;99.90;;;;;;4196345;28;20222;-75
2023/06/04 01:37:33;;;;;;;2.33;1.20;;;11.30;99.90;;;;;;4197157;28;20280;-74
2023/06/04 01:39:36;;;;;;;1.87;1.10;;;11.30;99.90;;;;;;4196200;28;20208;-74
2023/06/04 01:41:38;;;;;;;2.13;1.30;;;11.20;99.90;;;;;;4196878;28;20235;-74
2023/06/04 01:43:40;;;;;;;1.83;1.20;;;11.20;99.90;;;;;;4195258;28;20204;-74
2023/06/04 01:45:42;;;;;;;2.40;1.20;;;11.20;99.90;;;;;;4197870;28;20207;-75
2023/06/04 01:47:44;;;;;;;2.40;1.30;;;11.10;99.90;;;;;;4197568;28;20302;-73
2023/06/04 01:49:46;;;;;;;2.43;1.50;;;11.10;99.90;;;;;;4197489;28;20294;-75
2023/06/04 01:51:50;;;;;;;1.30;1.00;;;11.10;99.90;;;;;;4197477;28;20208;-74
2023/06/04 01:53:52;;;;;;;2.13;1.20;;;11.10;99.90;;;;;;4197594;28;20212;-75
2023/06/04 01:55:57;;;;;;;2.03;1.03;;;11.00;99.90;;;;;;4197271;28;20236;-74
2023/06/04 01:57:58;;;;;;;1.40;1.10;;;11.00;99.90;;;;;;4197463;28;20307;-75
2023/06/04 02:00:00;;;;;;;1.60;1.10;;;11.00;99.90;;;;;;4196282;28;20244;-75
2023/06/04 02:02:02;;;;;;;1.77;1.20;;;10.90;99.90;;;;;;4196873;28;20243;-74
2023/06/04 02:04:04;;;;;;;1.63;1.23;;;10.90;99.90;;;;;;4196322;28;20269;-74
2023/06/04 02:06:07;;;;;;;4.00;1.30;;;10.90;99.90;;;;;;4193742;28;20230;-75
2023/06/04 02:08:09;;;;;;;1.73;1.10;;;10.90;99.90;;;;;;4195254;28;20686;-75
2023/06/04 02:10:12;;;;;;;2.33;1.23;;;10.90;99.90;;;;;;4196465;28;20211;-75
2023/06/04 02:12:15;;;;;;;4.30;1.33;;;10.90;99.90;;;;;;4196475;28;20655;-74
2023/06/04 02:14:17;;;;;;;1.43;1.00;;;10.90;99.90;;;;;;4192252;28;20676;-75
2023/06/04 02:16:19;;;;;;;2.17;1.20;;;10.80;99.90;;;;;;4195108;28;20303;-75
2023/06/04 02:18:22;;;;;;;1.83;1.17;;;10.80;99.90;;;;;;4195326;28;20293;-75
2023/06/04 02:20:24;;;;;;;2.47;1.23;;;10.80;99.90;;;;;;4194565;28;20281;-75
2023/06/04 02:22:26;;;;;;;2.87;1.10;;;10.80;99.90;;;;;;4195285;28;20227;-75
2023/06/04 02:24:28;;;;;;;2.57;1.20;;;10.70;99.90;;;;;;4195012;28;20207;-75
2023/06/04 02:26:30;;;;;;;2.53;1.27;;;10.70;99.90;;;;;;4195554;28;20214;-75
2023/06/04 02:28:34;;;;;;;3.07;1.50;;;10.70;99.90;;;;;;4195171;28;20633;-75
2023/06/04 02:30:36;;;;;;;5.33;1.37;;;10.70;99.90;;;;;;4195425;28;20224;-75
2023/06/04 02:32:39;;;;;;;2.77;1.50;;;10.60;99.90;;;;;;4194641;28;20231;-75
2023/06/04 02:34:40;;;;;;;2.33;1.20;;;10.60;99.90;;;;;;4192450;28;20226;-75
2023/06/04 02:36:50;;;;;;;1.77;1.27;;;10.60;99.90;;;;;;4194907;28;20218;-75
2023/06/04 02:38:52;;;;;;;2.70;1.37;;;10.60;99.90;;;;;;4192709;28;20679;-74
2023/06/04 02:40:54;;;;;;;2.93;1.43;;;10.60;99.90;;;;;;4194652;28;20206;-75
2023/06/04 02:42:57;;;;;;;2.73;1.10;;;10.50;99.90;;;;;;4194776;28;20313;-75
2023/06/04 02:45:00;;;;;;;2.57;1.20;;;10.50;99.90;;;;;;4194240;28;20217;-75
2023/06/04 02:47:02;;;;;;;2.67;1.50;;;10.50;99.90;;;;;;4193390;28;20298;-75
2023/06/04 02:49:04;;;;;;;2.33;1.37;;;10.50;99.90;;;;;;4193624;28;20206;-74
2023/06/04 02:51:09;;;;;;;1.73;1.17;;;10.40;99.90;;;;;;4194798;28;20669;-75
2023/06/04 02:53:11;;;;;;;2.07;1.50;;;10.40;99.90;;;;;;4193665;28;20276;-75
2023/06/04 02:55:13;;;;;;;1.73;1.20;;;10.40;99.90;;;;;;4193330;28;20220;-75
2023/06/04 02:57:15;;;;;;;2.67;1.20;;;10.40;99.90;;;;;;4194010;28;20236;-75
2023/06/04 02:59:17;;;;;;;1.97;1.40;;;10.40;99.90;;;;;;4194981;28;20206;-75
2023/06/04 03:01:21;;;;;;;2.40;1.40;;;10.40;99.90;;;;;;4154685;28;1137726;-75
2023/06/04 03:03:23;;;;;;;2.47;1.50;;;10.30;99.90;;;;;;4192467;28;20219;-75
2023/06/04 03:05:26;;;;;;;2.53;1.40;;;10.30;99.90;;;;;;4193752;28;20205;-75
2023/06/04 03:07:28;;;;;;;2.13;1.30;;;10.30;99.90;;;;;;4194593;28;20214;-74
2023/06/04 03:09:31;;;;;;;2.63;1.40;;;10.30;99.90;;;;;;4195316;28;20206;-75
2023/06/04 03:11:33;;;;;;;2.53;1.40;;;10.30;99.90;;;;;;4194581;28;20241;-75
2023/06/04 03:13:35;;;;;;;2.03;1.40;;;10.30;99.90;;;;;;4194582;28;20302;-75
2023/06/04 03:15:38;;;;;;;3.13;1.57;;;10.20;99.90;;;;;;4194021;28;20237;-75
2023/06/04 03:17:42;;;;;;;3.00;1.50;;;10.20;99.90;;;;;;4195143;28;20222;-75
2023/06/04 03:19:44;;;;;;;2.57;1.40;;;10.20;99.90;;;;;;4193966;28;20769;-75
2023/06/04 03:21:46;;;;;;;2.17;1.60;;;10.20;99.90;;;;;;4195258;28;20719;-75
2023/06/04 03:23:48;;;;;;;2.87;1.80;;;10.20;99.90;;;;;;4195228;28;20267;-75
2023/06/04 03:25:50;;;;;;;1.83;1.40;;;10.20;99.90;;;;;;4192741;28;20217;-75
2023/06/04 03:27:52;;;;;;;3.23;1.60;;;10.20;99.90;;;;;;4194265;28;20224;-75
2023/06/04 03:29:54;;;;;;;3.57;1.70;;;10.10;99.90;;;;;;4194265;28;20699;-75
2023/06/04 03:31:56;;;;;;;2.63;1.30;;;10.10;99.90;;;;;;4194127;28;20598;-74
2023/06/04 03:33:59;;;;;;;2.60;1.30;;;10.10;99.90;;;;;;4190754;28;20220;-75
2023/06/04 03:36:01;;;;;;;2.17;1.40;;;10.10;99.90;;;;;;4192957;28;20291;-75
2023/06/04 03:38:03;;;;;;;4.90;1.70;;;10.10;99.90;;;;;;4195103;28;20214;-75
2023/06/04 03:40:07;;;;;;;2.70;1.50;;;10.10;99.90;;;;;;4194263;28;20789;-75
2023/06/04 03:42:10;;;;;;;2.50;1.60;;;10.10;99.90;;;;;;4195144;28;20229;-75
2023/06/04 03:44:14;;;;;;;1.53;1.20;;;10.10;99.90;;;;;;4192992;28;20202;-75
2023/06/04 03:46:15;;;;;;;2.30;1.30;;;10.10;99.90;;;;;;4194971;28;20229;-75
2023/06/04 03:48:17;;;;;;;2.70;1.70;;;10.10;99.90;;;;;;4193982;28;20222;-75
2023/06/04 03:50:21;;;;;;;2.57;1.37;;;10.10;99.90;;;;;;4192838;28;20221;-75
2023/06/04 03:52:22;;;;;;;7.00;1.80;;;10.10;99.90;;;;;;4193847;28;20700;-74
2023/06/04 03:54:25;;;;;;;2.43;1.47;;;10.10;99.90;;;;;;4195078;28;20213;-75
2023/06/04 03:56:27;;;;;;;2.33;1.70;;;10.10;99.90;;;;;;4193422;28;20226;-75
2023/06/04 03:58:29;;;;;;;3.83;1.97;;;10.10;99.90;;;;;;4192941;28;20272;-74
2023/06/04 04:00:31;;;;;;;4.40;2.47;;;10.10;99.90;;;;;;4190086;28;20203;-75
2023/06/04 04:02:33;;;;;;;7.17;3.53;;;10.10;99.90;;;;;;4194409;28;20295;-75
2023/06/04 04:04:35;;;;;;;7.40;3.93;;;10.10;99.90;;;;;;4194550;28;20698;-75
2023/06/04 04:06:41;;;;;;;7.10;3.50;;;10.10;99.90;;;;;;4194148;28;20207;-75
2023/06/04 04:08:43;;;;;;;5.60;3.20;;;10.10;99.90;;;;;;4193748;28;20921;-75
2023/06/04 04:10:45;;;;;;;5.20;2.80;;;10.10;99.90;;;;;;4194117;28;20210;-74
2023/06/04 04:12:47;;;;;;;5.40;2.40;;;10.10;99.90;;;;;;4193396;28;20234;-75
2023/06/04 04:14:49;;;;;;;4.93;2.43;;;10.10;99.90;;;;;;4194094;28;20210;-75
2023/06/04 04:16:51;;;;;;;3.93;2.00;;;10.10;99.90;;;;;;4193140;28;20230;-75
2023/06/04 04:18:53;;;;;;;4.30;1.80;;;10.10;99.90;;;;;;4193982;28;20210;-75
2023/06/04 04:20:55;;;;;;;3.17;1.70;;;10.10;99.90;;;;;;4194422;28;20218;-75
2023/06/04 04:22:58;;;;;;;4.03;2.07;;;10.10;99.90;;;;;;4193764;28;20243;-75
2023/06/04 04:25:01;;;;;;;3.10;1.60;;;10.10;99.90;;;;;;4193454;28;20586;-75
2023/06/04 04:27:04;;;;;;;2.47;1.40;;;10.10;99.90;;;;;;4194211;28;20260;-75
2023/06/04 04:29:08;;;;;;;4.53;1.80;;;10.10;99.90;;;;;;4193025;28;20215;-75
2023/06/04 04:31:10;;;;;;;2.97;1.80;;;10.50;99.90;;;;;;4192949;28;20660;-75
2023/06/04 04:33:15;;;;;;;4.13;1.80;;;10.10;99.90;;;;;;4193629;28;20233;-75
2023/06/04 04:35:18;;;;;;;2.50;1.60;;;10.10;99.90;;;;;;4194145;28;20653;-74
2023/06/04 04:37:23;;;;;;;3.73;1.83;;;10.10;99.90;;;;;;4193671;28;20254;-74
2023/06/04 04:39:26;;;;;;;3.90;1.70;;;10.10;99.90;;;;;;4193389;28;20210;-75
2023/06/04 04:41:28;;;;;;;3.97;1.70;;;10.10;99.90;;;;;;4194019;28;20305;-75
2023/06/04 04:43:31;;;;;;;4.07;1.77;;;10.10;99.90;;;;;;4191625;28;20227;-75
2023/06/04 04:45:33;;;;;;;2.63;1.60;;;10.10;99.90;;;;;;4193749;28;20210;-75
2023/06/04 04:47:35;;;;;;;4.40;2.00;;;10.10;99.90;;;;;;4194226;28;20206;-75
2023/06/04 04:49:37;;;;;;;3.13;1.83;;;10.10;99.90;;;;;;4192455;28;20240;-75
2023/06/04 04:51:39;;;;;;;2.33;1.60;;;10.20;99.90;;;;;;4194014;28;20217;-75
2023/06/04 04:53:41;;;;;;;2.60;1.40;;;10.10;99.90;;;;;;4193632;28;20210;-75
2023/06/04 04:55:44;;;;;;;2.23;1.60;;;10.10;99.90;;;;;;4193369;28;20648;-75
2023/06/04 04:57:46;;;;;;;2.93;1.70;;;10.10;99.90;;;;;;4193793;28;20307;-75
2023/06/04 04:59:48;;;;;;;2.43;1.67;;;10.10;99.90;;;;;;4192900;28;20241;-75
2023/06/04 05:01:50;;;;;;;2.83;1.63;;;10.10;99.90;;;;;;4193384;28;20222;-75
2023/06/04 05:03:52;;;;;;;4.17;1.67;;;10.20;99.90;;;;;;4194175;28;20220;-75
2023/06/04 05:05:54;;;;;;;3.00;1.63;;;10.20;99.90;;;;;;4192107;28;20213;-75
2023/06/04 05:07:56;;;;;;;2.53;1.70;;;10.20;99.90;;;;;;4193053;28;20588;-75
2023/06/04 05:09:58;;;;;;;2.97;1.70;;;10.20;99.90;;;;;;4192843;28;20312;-75
2023/06/04 05:12:02;;;;;;;3.53;1.90;;;10.20;99.90;;;;;;4194278;28;20654;-75
2023/06/04 05:14:05;;;;;;;3.30;1.60;;;10.20;99.90;;;;;;4192525;28;20215;-75
2023/06/04 05:16:07;;;;;;;2.67;1.73;;;10.30;99.90;;;;;;4191241;28;20790;-75
2023/06/04 05:18:09;;;;;;;2.37;1.70;;;10.30;99.90;;;;;;4190963;28;20216;-75
2023/06/04 05:20:12;;;;;;;3.53;1.80;;;10.30;99.90;;;;;;4193335;28;20260;-74
2023/06/04 05:22:15;;;;;;;2.47;1.40;;;10.30;99.90;;;;;;4193576;28;20284;-74
2023/06/04 05:24:17;;;;;;;2.50;1.60;;;10.40;99.90;;;;;;4191908;28;20629;-74
2023/06/04 05:26:22;;;;;;;3.20;1.50;;;10.40;99.90;;;;;;4193884;28;20310;-74
2023/06/04 05:28:26;;;;;;;2.10;1.47;;;10.40;99.90;;;;;;4191639;28;20256;-74
2023/06/04 05:30:28;;;;;;;1.83;1.40;;;10.40;99.90;;;;;;4193936;28;20726;-75
2023/06/04 05:32:32;;;;;;;2.30;1.60;;;10.50;99.90;;;;;;4192066;28;20258;-75
2023/06/04 05:34:36;;;;;;;2.27;1.40;;;10.50;99.90;;;;;;4193750;28;20248;-75
2023/06/04 05:36:39;;;;;;;3.57;1.37;;;10.50;99.90;;;;;;4191829;28;20226;-74
2023/06/04 05:38:42;;;;;;;2.00;1.40;;;10.60;99.90;;;;;;4190920;28;20220;-75
2023/06/04 05:40:44;;;;;;;1.93;1.40;;;10.60;99.90;;;;;;4192286;28;20203;-75
2023/06/04 05:42:46;;;;;;;1.77;1.20;;;10.60;99.90;;;;;;4194102;28;20265;-75
2023/06/04 05:44:49;;;;;;;3.63;1.33;;;10.60;99.90;;;;;;4193675;28;20298;-75
2023/06/04 05:46:51;;;;;;;1.40;1.10;;;10.70;99.90;;;;;;4192305;28;20586;-75
2023/06/04 05:48:53;;;;;;;2.20;1.30;;;10.70;99.90;;;;;;4193047;28;20215;-75
2023/06/04 05:50:55;;;;;;;1.80;1.30;;;10.80;99.90;;;;;;4191922;28;20214;-74
2023/06/04 05:52:57;;;;;;;2.33;1.30;;;10.80;99.90;;;;;;4192926;28;20254;-74
2023/06/04 05:54:59;;;;;;;2.53;1.40;;;10.80;99.90;;;;;;4192601;28;20207;-75
2023/06/04 05:57:01;;;;;;;3.97;1.30;;;10.90;99.90;;;;;;4195931;28;20704;-75
2023/06/04 05:59:03;;;;;;;1.37;1.10;;;10.90;99.90;;;;;;4196362;28;20214;-74
2023/06/04 06:01:07;;;;;;;2.00;1.40;;;10.90;99.90;;;;;;4196919;28;20309;-75
2023/06/04 06:03:09;;;;;;;3.17;1.37;;;10.90;99.90;;;;;;4197171;28;20259;-75
2023/06/04 06:05:12;;;;;;;2.07;1.40;;;11.00;99.90;;;;;;4197393;28;20677;-75
2023/06/04 06:07:14;;;;;;;2.07;1.30;;;11.00;99.90;;;;;;4196123;28;20664;-74
2023/06/04 06:09:16;;;;;;;1.40;1.00;;;11.10;99.90;;;;;;4197302;28;20211;-75
2023/06/04 06:11:18;;;;;;;2.63;1.40;;;11.10;99.90;;;;;;4197455;28;20227;-75
2023/06/04 06:13:20;;;;;;;3.57;1.50;;;11.20;99.90;;;;;;4191242;28;20260;-74
2023/06/04 06:15:23;;;;;;;1.83;1.27;;;11.30;99.90;;;;;;4197464;28;20216;-74
2023/06/04 06:17:27;;;;;;;2.00;1.33;;;11.30;99.90;;;;;;4197092;28;20219;-74
2023/06/04 06:19:29;;;;;;;1.37;1.20;;;11.30;99.90;;;;;;4195962;28;20208;-74
2023/06/04 06:21:31;;;;;;;2.00;1.30;;;11.40;99.90;;;;;;4195472;28;20210;-74
2023/06/04 06:23:33;;;;;;;1.53;1.27;;;11.40;99.90;;;;;;4190280;28;20705;-74
2023/06/04 06:25:35;;;;;;;1.50;1.10;;;11.50;99.90;;;;;;4196743;28;20247;-75
2023/06/04 06:27:37;;;;;;;1.83;1.10;;;11.60;99.90;;;;;;4197185;28;20853;-74
2023/06/04 06:29:39;;;;;;;1.60;1.10;;;11.60;99.90;;;;;;4194667;28;20218;-74
2023/06/04 06:31:41;;;;;;;2.13;1.13;;;11.70;99.90;;;;;;4193625;28;20278;-74
2023/06/04 06:33:46;;;;;;;2.27;1.00;;;11.80;99.90;;;;;;4194343;28;20711;-75
2023/06/04 06:35:54;;;;;;;2.20;1.00;;;11.80;99.90;;;;;;4195837;28;20215;-75
2023/06/04 06:37:56;;;;;;;2.00;1.30;;;11.90;99.90;;;;;;4197050;28;20248;-75
2023/06/04 06:39:58;;;;;;;1.97;1.00;;;11.90;99.90;;;;;;4194927;28;20212;-75
2023/06/04 06:42:00;;;;;;;1.57;1.10;;;12.00;99.90;;;;;;4194838;28;20235;-75
2023/06/04 06:44:01;;;;;;;1.90;1.00;;;12.10;99.90;;;;;;4195620;28;20311;-75
2023/06/04 06:46:03;;;;;;;3.67;1.27;;;12.10;99.90;;;;;;4195335;28;20220;-75
2023/06/04 06:48:06;;;;;;;1.63;1.20;;;12.20;99.90;;;;;;4195150;28;20205;-75
2023/06/04 06:50:10;;;;;;;2.93;1.20;;;12.30;99.90;;;;;;4195970;28;20581;-75
2023/06/04 06:52:12;;;;;;;2.03;1.23;;;12.30;99.90;;;;;;4195433;28;20233;-75
2023/06/04 06:54:16;;;;;;;2.43;1.20;;;12.40;99.90;;;;;;4195421;28;20682;-75
2023/06/04 06:56:18;;;;;;;3.30;1.00;;;12.50;99.90;;;;;;4193384;28;20240;-76
2023/06/04 06:58:20;;;;;;;1.43;1.03;;;12.50;99.90;;;;;;4194488;28;20559;-75
2023/06/04 07:00:22;;;;;;;3.63;1.40;;;12.60;99.90;;;;;;4195861;28;20213;-75
2023/06/04 07:02:25;;;;;;;2.30;1.10;;;12.70;99.90;;;;;;4195412;28;20241;-75
2023/06/04 07:04:27;;;;;;;2.10;1.10;;;12.80;99.90;;;;;;4195298;28;20301;-76
2023/06/04 07:06:30;;;;;;;1.90;1.20;;;12.80;99.90;;;;;;4194013;28;20201;-74
2023/06/04 07:08:33;;;;;;;1.10;0.80;;;12.90;99.90;;;;;;4196014;28;20278;-75
2023/06/04 07:10:34;;;;;;;3.10;1.40;;;13.00;99.90;;;;;;4197000;28;20205;-75
2023/06/04 07:12:36;;;;;;;4.13;1.50;;;13.10;99.90;;;;;;4188291;28;20229;-74
2023/06/04 07:14:38;;;;;;;6.03;2.37;;;13.20;99.90;;;;;;4196221;28;20211;-74
2023/06/04 07:16:40;;;;;;;6.50;3.30;;;13.20;99.90;;;;;;4191564;28;20206;-74
2023/06/04 07:18:42;;;;;;;8.40;3.57;;;13.30;99.90;;;;;;4193723;28;20292;-74
2023/06/04 07:20:44;;;;;;;12.30;4.80;;;13.40;99.90;;;;;;4196585;28;20265;-75
2023/06/04 07:22:47;;;;;;;11.60;5.30;;;13.50;99.90;;;;;;4182014;28;20282;-75
2023/06/04 07:24:50;;;;;;;15.07;5.77;;;13.60;99.90;;;;;;4192849;28;20202;-75
2023/06/04 07:26:52;;;;;;;16.17;6.93;;;13.60;99.90;;;;;;4192735;28;20205;-75
2023/06/04 07:28:53;;;;;;;16.10;5.57;;;13.70;99.90;;;;;;4196185;28;20292;-74
2023/06/04 07:30:55;;;;;;;11.57;4.43;;;13.80;99.90;;;;;;4196099;28;20212;-75
2023/06/04 07:32:57;;;;;;;7.43;3.20;;;13.80;99.90;;;;;;4195535;28;20253;-75
2023/06/04 07:34:59;;;;;;;5.30;2.20;;;14.00;99.90;;;;;;4194526;28;20217;-75
2023/06/04 07:37:01;;;;;;;3.93;1.97;;;14.00;99.90;;;;;;4192328;28;20244;-76
2023/06/04 07:39:08;;;;;;;2.50;1.50;;;14.10;99.90;;;;;;4194318;28;20241;-75
2023/06/04 07:41:10;;;;;;;2.07;1.27;;;14.20;98.80;;;;;;4194089;28;20499;-75
2023/06/04 07:43:12;;;;;;;2.40;1.30;;;14.30;98.40;;;;;;4194200;28;20325;-75
2023/06/04 07:45:14;;;;;;;2.27;1.23;;;14.40;96.10;;;;;;4194494;28;20242;-75
2023/06/04 07:47:16;;;;;;;2.30;1.17;;;14.50;93.30;;;;;;4194195;28;20202;-76
2023/06/04 07:49:18;;;;;;;2.67;1.00;;;14.60;92.90;;;;;;4193970;28;20670;-75
2023/06/04 07:51:20;;;;;;;4.23;1.27;;;14.70;86.90;;;;;;4193602;28;20226;-75
2023/06/04 07:53:22;;;;;;;5.73;1.30;;;14.70;84.90;;;;;;4194738;28;20231;-75
2023/06/04 07:55:25;;;;;;;3.23;1.00;;;14.80;80.90;;;;;;4194098;28;20218;-76
2023/06/04 07:57:27;;;;;;;2.40;1.10;;;15.00;74.90;;;;;;4193433;28;20269;-75
2023/06/04 07:59:30;;;;;;;1.33;1.07;;;15.10;72.10;;;;;;4193056;28;20224;-76
2023/06/04 08:01:32;;;;;;;4.20;2.47;;;15.20;68.90;;;;;;4194350;28;20567;-75
2023/06/04 08:03:34;;;;;;;3.90;2.00;;;15.30;68.20;;;;;;4193959;28;20312;-76
2023/06/04 08:05:36;;;;;;;3.03;1.43;;;15.30;66.50;;;;;;4193858;28;20232;-75
2023/06/04 08:07:38;;;;;;;4.50;1.30;;;15.40;58.60;;;;;;4191115;28;20199;-75
2023/06/04 08:09:40;;;;;;;2.80;1.40;;;15.50;56.00;;;;;;4192853;28;20216;-75
2023/06/04 08:11:44;;;;;;;1.33;1.00;;;15.60;55.50;;;;;;4194405;28;21222;-76
2023/06/04 08:13:46;;;;;;;1.90;1.00;;;15.80;54.90;;;;;;4193413;28;20304;-76
2023/06/04 08:15:48;;;;;;;1.13;0.83;;;15.80;54.30;;;;;;4191368;28;20213;-75
2023/06/04 08:17:50;;;;;;;2.33;0.90;;;15.90;53.90;;;;;;4193301;28;20243;-75
2023/06/04 08:19:51;;;;;;;1.70;0.90;;;16.00;52.70;;;;;;4193400;28;20777;-76
2023/06/04 08:21:53;;;;;;;1.80;0.93;;;16.10;52.10;;;;;;4193638;28;20234;-75
2023/06/04 08:23:56;;;;;;;3.03;1.00;;;16.20;49.80;;;;;;4194229;28;20301;-75
2023/06/04 08:25:59;;;;;;;1.43;0.80;;;16.30;47.40;;;;;;4193520;28;20206;-75
2023/06/04 08:28:02;;;;;;;2.27;0.97;;;16.30;46.00;;;;;;4193206;28;20231;-75
2023/06/04 08:30:05;;;;;;;1.70;0.80;;;16.40;45.30;;;;;;4195460;28;20206;-75
2023/06/04 08:32:08;;;;;;;1.47;0.70;;;16.50;44.20;;;;;;4191973;28;20828;-76
2023/06/04 08:34:10;;;;;;;1.40;0.80;;;16.60;43.40;;;;;;4193378;28;20213;-76
2023/06/04 08:36:12;;;;;;;1.50;0.80;;;16.70;43.70;;;;;;4191840;28;20305;-76
2023/06/04 08:38:14;;;;;;;1.20;0.90;;;16.80;41.60;;;;;;4193787;28;20244;-75
2023/06/04 08:40:16;;;;;;;3.63;1.03;;;16.90;40.40;;;;;;4192379;28;20201;-75
2023/06/04 08:42:28;;;;;;;1.60;1.13;;;16.90;40.40;;;;;;4192752;28;20316;-75
2023/06/04 08:44:31;;;;;;;2.20;1.20;;;17.00;40.50;;;;;;4194635;28;20690;-76
2023/06/04 08:46:39;;;;;;;1.77;1.00;;;17.10;40.00;;;;;;4192934;28;20585;-75
2023/06/04 08:48:41;;;;;;;1.17;0.87;;;17.20;39.20;;;;;;4193215;28;20201;-75
2023/06/04 08:50:47;;;;;;;1.90;1.00;;;17.30;38.50;;;;;;4194146;28;20250;-74
2023/06/04 08:52:52;;;;;;;1.60;1.00;;;17.40;37.90;;;;;;4190989;28;20264;-75
2023/06/04 08:54:56;;;;;;;1.17;0.87;;;17.50;37.50;;;;;;4193174;28;21105;-75
2023/06/04 08:56:58;;;;;;;1.10;0.80;;;17.50;37.90;;;;;;4194423;28;20213;-75
2023/06/04 08:59:03;;;;;;;1.63;0.80;;;17.60;37.80;;;;;;4193963;28;20210;-75
2023/06/04 09:01:07;;;;;;;2.57;0.80;;;17.70;37.90;;;;;;4193034;28;20244;-75
2023/06/04 09:03:11;;;;;;;0.87;0.70;;;17.70;38.10;;;;;;4190846;28;20964;-76
2023/06/04 09:05:22;;;;;;;2.97;0.80;;;17.90;38.10;;;;;;4193074;28;20237;-75
2023/06/04 09:07:25;;;;;;;2.00;0.90;;;18.00;37.20;;;;;;4195237;28;20262;-75
2023/06/04 09:09:29;;;;;;;1.63;0.83;;;18.10;36.60;;;;;;4191912;28;20206;-75
2023/06/04 09:11:40;;;;;;;2.33;1.03;;;18.20;36.00;;;;;;4190634;28;20234;-75
2023/06/04 09:13:45;;;;;;;2.23;0.87;;;18.20;35.10;;;;;;4189682;28;20207;-75
2023/06/04 09:15:58;;;;;;;1.70;0.80;;;18.40;35.00;;;;;;4194584;28;20596;-75
2023/06/04 09:18:02;;;;;;;6.60;1.00;;;18.50;34.40;;;;;;4193270;28;20251;-75
2023/06/04 09:20:05;;;;;;;2.03;1.00;;;18.60;34.10;;;;;;4195172;28;20222;-75
2023/06/04 09:22:07;;;;;;;2.13;0.93;;;18.70;34.10;;;;;;4193620;28;20239;-75
2023/06/04 09:24:08;;;;;;;1.40;0.93;;;18.70;34.20;;;;;;4194277;28;20212;-75
2023/06/04 09:26:12;;;;;;;3.23;1.30;;;18.80;34.10;;;;;;4194036;28;20239;-75
2023/06/04 09:28:15;;;;;;;1.60;1.00;;;18.90;33.80;;;;;;4192725;28;20206;-75
2023/06/04 09:30:16;;;;;;;1.90;1.00;;;18.90;33.00;;;;;;4194486;28;20217;-75
2023/06/04 09:32:22;;;;;;;1.83;0.97;;;19.00;32.80;;;;;;4196362;28;20319;-75
2023/06/04 09:34:30;;;;;;;2.33;1.10;;;19.10;31.60;;;;;;4195501;28;20213;-75
2023/06/04 09:36:33;;;;;;;0.80;0.70;;;19.20;31.70;;;;;;4191601;28;20224;-75
2023/06/04 09:38:35;;;;;;;2.07;1.00;;;19.30;31.90;;;;;;4196493;28;20226;-76
2023/06/04 09:40:38;;;;;;;2.27;0.97;;;19.40;31.60;;;;;;4195593;28;20311;-76
2023/06/04 09:42:44;;;;;;;2.10;0.90;;;19.50;30.90;;;;;;4195571;28;20225;-75
2023/06/04 09:44:46;;;;;;;2.70;1.00;;;19.50;30.40;;;;;;4195863;28;20253;-75
2023/06/04 09:46:55;;;;;;;2.03;0.80;;;19.70;30.00;;;;;;4195599;28;20228;-75
2023/06/04 09:49:02;;;;;;;1.00;0.80;;;19.80;30.00;;;;;;4196001;28;20294;-76
2023/06/04 09:51:10;;;;;;;1.30;0.80;;;19.90;30.00;;;;;;4196167;28;20716;-76
2023/06/04 09:53:16;;;;;;;0.90;0.80;;;19.90;29.70;;;;;;4197898;28;20335;-75
2023/06/04 09:55:22;;;;;;;2.83;0.80;;;20.00;29.50;;;;;;4194820;28;20302;-76
2023/06/04 09:57:30;;;;;;;0.93;0.70;;;20.10;29.40;;;;;;4196127;28;20216;-75
2023/06/04 09:59:37;;;;;;;1.70;1.00;;;20.20;29.70;;;;;;4196628;28;20225;-75
2023/06/04 10:01:42;;;;;;;1.13;1.00;;;20.30;29.60;;;;;;4194252;28;20221;-75
2023/06/04 10:03:48;;;;;;;1.63;0.80;;;20.50;29.50;;;;;;4191780;28;20213;-75
2023/06/04 10:05:51;;;;;;;1.07;0.97;;;20.50;29.20;;;;;;4195172;28;20292;-75
2023/06/04 10:07:57;;;;;;;1.57;0.70;;;20.70;28.60;;;;;;4193241;28;20296;-75
2023/06/04 10:09:59;;;;;;;3.10;1.20;;;20.80;28.40;;;;;;4195372;28;20212;-76
2023/06/04 10:12:02;;;;;;;1.17;0.80;;;20.90;28.00;;;;;;4195733;28;20229;-75
2023/06/04 10:14:07;;;;;;;2.20;1.10;;;21.00;27.30;;;;;;4195448;28;20221;-75
2023/06/04 10:16:11;;;;;;;2.10;1.10;;;21.10;26.70;;;;;;4194659;28;20213;-76
2023/06/04 10:18:15;;;;;;;1.23;0.80;;;21.20;26.40;;;;;;4195627;28;20263;-76
2023/06/04 10:20:20;;;;;;;1.90;1.00;;;21.40;25.50;;;;;;4196894;28;20217;-75
2023/06/04 10:22:22;;;;;;;1.63;0.70;;;21.50;25.70;;;;;;4194992;28;20226;-75
2023/06/04 10:24:26;;;;;;;2.30;0.83;;;21.60;25.70;;;;;;4196446;28;20274;-76
2023/06/04 10:26:29;;;;;;;0.83;0.70;;;21.70;25.40;;;;;;4194937;28;20214;-76
2023/06/04 10:28:32;;;;;;;1.80;1.00;;;21.80;25.60;;;;;;4195235;28;20723;-75
2023/06/04 10:30:34;;;;;;;2.20;0.83;;;21.90;24.50;;;;;;4194488;28;20771;-75
2023/06/04 10:32:36;;;;;;;1.70;1.00;;;22.00;24.30;;;;;;4196086;28;20925;-76
2023/06/04 10:34:38;;;;;;;2.37;1.20;;;22.20;24.50;;;;;;4196622;28;20212;-76
2023/06/04 10:36:44;;;;;;;1.00;0.80;;;22.30;23.90;;;;;;4197360;28;20202;-76
2023/06/04 10:38:47;;;;;;;2.00;1.10;;;22.40;23.40;;;;;;4196573;28;20728;-75